Portada
METAR-TAF:

METAR-TAF

Aeroports :

València, Espanya

latitud: 39-37-26N, longitud: 0-28-26W, altitud: 127 m

Observació

L'informe es va fer fa 14 minuts, a les 12:30 UTC
Vent 7 kt amb direcció variable
Temperatura 31°C
Humitat 55%
Pressió 1015 hPa
Visibilitat 10 km o més

METAR: LEBT 171230Z AUTO VRB07KT 9999 NCD 31/21 Q1015

Hora: 14:44 (12:44 UTC)


TAF: manca

Observacions i pronòstics meteorològics de més de 4000 aeroports (METAR i TAF).

Les estacions disponibles són els punts grocs i vermells al mapa.

Posi el ratolí al punt desitjat per veure el nom de l'estació.

Feu clic per veure les observacions i els pronòstics meteorològics.

Per canviar el mapa: feu clic els botons verds amb una creu de color negre per apropar; al botó verd amb un guió per allunyar la imatge; o en les fletxes verdes per a mapes adjacents.


METAR-TAF: